sensor_id;sensor_type;location;lat;lon;timestamp;temperature;humidity
22147;DHT22;13074;48.298;14.424;2024-03-08T02:16:34;2.90;99.90
22147;DHT22;13074;48.298;14.424;2024-03-08T02:19:46;2.80;99.90
22147;DHT22;13074;48.298;14.424;2024-03-08T02:25:58;2.90;99.90
22147;DHT22;13074;48.298;14.424;2024-03-08T02:29:31;2.80;99.90
22147;DHT22;13074;48.298;14.424;2024-03-08T02:35:35;2.90;99.90
22147;DHT22;13074;48.298;14.424;2024-03-08T02:38:30;2.70;99.90
22147;DHT22;13074;48.298;14.424;2024-03-08T02:44:30;2.70;99.90
22147;DHT22;13074;48.298;14.424;2024-03-08T02:47:40;2.70;99.90
22147;DHT22;13074;48.298;14.424;2024-03-08T02:54:10;2.80;99.90
22147;DHT22;13074;48.298;14.424;2024-03-08T02:57:41;2.80;99.90
22147;DHT22;13074;48.298;14.424;2024-03-08T03:22:14;2.80;99.90
22147;DHT22;13074;48.298;14.424;2024-03-08T03:25:26;2.80;99.90
22147;DHT22;13074;48.298;14.424;2024-03-08T03:28:09;2.70;99.90
22147;DHT22;13074;48.298;14.424;2024-03-08T03:30:56;2.70;99.90
22147;DHT22;13074;48.298;14.424;2024-03-08T03:33:45;2.80;99.90
22147;DHT22;13074;48.298;14.424;2024-03-08T03:36:31;2.80;99.90
22147;DHT22;13074;48.298;14.424;2024-03-08T03:39:39;2.70;99.90
22147;DHT22;13074;48.298;14.424;2024-03-08T03:42:18;2.60;99.90
22147;DHT22;13074;48.298;14.424;2024-03-08T03:45:08;2.60;99.90
22147;DHT22;13074;48.298;14.424;2024-03-08T03:47:58;2.60;99.90
22147;DHT22;13074;48.298;14.424;2024-03-08T03:50:47;2.50;99.90
22147;DHT22;13074;48.298;14.424;2024-03-08T03:53:19;2.50;99.90
22147;DHT22;13074;48.298;14.424;2024-03-08T03:56:43;2.60;99.90
22147;DHT22;13074;48.298;14.424;2024-03-08T04:05:47;2.60;99.90
22147;DHT22;13074;48.298;14.424;2024-03-08T04:08:32;2.50;99.90
22147;DHT22;13074;48.298;14.424;2024-03-08T04:11:10;2.50;99.90
22147;DHT22;13074;48.298;14.424;2024-03-08T04:17:22;2.50;99.90
22147;DHT22;13074;48.298;14.424;2024-03-08T04:20:11;2.60;99.90
22147;DHT22;13074;48.298;14.424;2024-03-08T04:23:11;2.70;99.90
22147;DHT22;13074;48.298;14.424;2024-03-08T04:26:06;2.90;99.90
22147;DHT22;13074;48.298;14.424;2024-03-08T04:28:55;3.10;99.90
22147;DHT22;13074;48.298;14.424;2024-03-08T04:41:51;3.30;99.90
22147;DHT22;13074;48.298;14.424;2024-03-08T04:45:08;3.30;99.90
22147;DHT22;13074;48.298;14.424;2024-03-08T04:51:47;3.30;99.90
22147;DHT22;13074;48.298;14.424;2024-03-08T05:05:19;3.10;99.90
22147;DHT22;13074;48.298;14.424;2024-03-08T05:14:05;2.70;99.90
22147;DHT22;13074;48.298;14.424;2024-03-08T05:16:53;2.70;99.90
22147;DHT22;13074;48.298;14.424;2024-03-08T05:19:52;2.60;99.90
22147;DHT22;13074;48.298;14.424;2024-03-08T05:22:46;2.60;99.90
22147;DHT22;13074;48.298;14.424;2024-03-08T05:25:34;2.60;99.90
22147;DHT22;13074;48.298;14.424;2024-03-08T05:31:02;2.50;99.90
22147;DHT22;13074;48.298;14.424;2024-03-08T05:34:10;2.50;99.90
22147;DHT22;13074;48.298;14.424;2024-03-08T05:37:13;2.50;99.90
22147;DHT22;13074;48.298;14.424;2024-03-08T05:46:39;2.40;99.90
22147;DHT22;13074;48.298;14.424;2024-03-08T05:49:20;2.50;99.90
22147;DHT22;13074;48.298;14.424;2024-03-08T05:52:13;2.30;99.90
22147;DHT22;13074;48.298;14.424;2024-03-08T05:55:29;2.50;99.90
22147;DHT22;13074;48.298;14.424;2024-03-08T07:17:27;4.50;99.90
22147;DHT22;13074;48.298;14.424;2024-03-08T07:22:41;4.30;99.90
22147;DHT22;13074;48.298;14.424;2024-03-08T07:25:09;4.40;99.90
22147;DHT22;13074;48.298;14.424;2024-03-08T07:27:51;4.40;99.90
22147;DHT22;13074;48.298;14.424;2024-03-08T07:30:20;4.40;99.90
22147;DHT22;13074;48.298;14.424;2024-03-08T07:35:44;4.50;99.90
22147;DHT22;13074;48.298;14.424;2024-03-08T07:38:25;4.60;99.90
22147;DHT22;13074;48.298;14.424;2024-03-08T07:40:56;4.70;99.90
22147;DHT22;13074;48.298;14.424;2024-03-08T07:43:37;4.90;99.90
22147;DHT22;13074;48.298;14.424;2024-03-08T07:46:06;4.90;99.90
22147;DHT22;13074;48.298;14.424;2024-03-08T07:48:36;5.10;99.90
22147;DHT22;13074;48.298;14.424;2024-03-08T07:51:07;5.20;99.90
22147;DHT22;13074;48.298;14.424;2024-03-08T07:53:35;5.30;99.90
22147;DHT22;13074;48.298;14.424;2024-03-08T07:56:04;5.30;99.90
